Amorita, Oklahoma
Current Conditions -  °F | °C
As of 7:50 PM on Monday 24 Nov 2014 (Local Time) from KAVK Reporting Station
Broken Clouds Broken Clouds  
Wind Chill: 38°   Ceiling: 9000
Heat Index: 41°   Visibility: 10mi
Dew Point: 18°   Wind: 5mph
Humidity: 39%   Direction: 10°N
Pressure: 30.09"   Gusts: NA
Location:  36.92°N, 98.29°W
Report Text: KAVK 250150Z AUTO 01004KT 10SM BKN090 05/M08 A3009 RMK AO2
Loading
Personal Weather Stations






























Interactive Weather Map New forecast layout! Learn more

10-Day Weather Forecast

Advertisements
Track Severe Weather on mobile